Nearby METAR Reports

METAR is the scheduled surface weather observation taken hourly at civil and military airport locations.

METAR is an acronym from the French language and roughly translates as Aviation Routine Weather Report.

 

EGPL - Benbecula Island, United Kingdom
Distance from station: WNW 41mi, 66km
Updated: 23/11/2020 19:20
Few Clouds
Few Clouds
 Wind from SW
Wind: SW 23 mph , 37 km/h
Temperature: 10°C
Wind Chill: 6°C
Dew Point: 6°C
Humidity: 76%
Barometer: 1002 hPa
Clouds: Few Clouds
Visibility: 6 miles , 10 km
Cloud details: Few Clouds 1097 m
2020/11/23 19:20 EGPL 231920Z AUTO 23020KT 9999 FEW036/// 10/06 Q1002
EGPU - Tiree Island, United Kingdom
Distance from station: SSW 56mi, 90km
Updated: 23/11/2020 18:50
Light rain, Partly cloudy
Light rain, Partly cloudy
 Wind from WSW
Wind: WSW 16 mph , 26 km/h
Temperature: 9°C
Wind Chill: 6°C
Dew Point: 8°C
Humidity: 94%
Barometer: 1006 hPa
Summary: Light rain
Clouds: Partly cloudy
Visibility: 4 miles , 6 km
Cloud details: Mostly cloudy 1036 m
Partly cloudy 1402 m
2020/11/23 18:50 EGPU 231850Z AUTO 24014KT 210V270 6000 -RA BKN034/// SCT046/// 09/08 Q1006
 
EGEO - Oban Airport, United Kingdom
Distance from station: SE 65mi, 105km
Updated: 23/11/2020 13:50
NOT Current
Light rain, Overcast
Light rain, Overcast
 Wind from SSW
Wind: SSW 18 mph , 30 km/h
Temperature: 9°C
Wind Chill: 5°C
Dew Point: 7°C
Humidity: 87%
Barometer: 1010 hPa
Summary: Light rain
Clouds: Overcast
Visibility: 6 miles , 10 km
Cloud details: Partly cloudy 396 m
Overcast 640 m
2020/11/23 13:50 EGEO 231350Z 20016KT 9999 -RA SCT013 OVC021 09/07 Q1010
EGPO - Stornoway, United Kingdom
Distance from station: 0 66mi, 106km
Updated: 23/11/2020 19:20
Mostly cloudy
Mostly cloudy
 Wind from SSW
Wind: SSW 15 mph , 24 km/h
Temperature: 8°C
Wind Chill: 4°C
Dew Point: 6°C
Humidity: 87%
Barometer: 1001 hPa
Clouds: Mostly cloudy
Visibility: 6 miles , 10 km
Cloud details: Partly cloudy 853 m
Mostly cloudy 1097 m
2020/11/23 19:20 EGPO 231920Z AUTO 21013KT 9999 SCT028/// BKN036/// 08/06 Q1001
 
EGPE - Inverness/Dalcro, United Kingdom
Distance from station: ENE 88mi, 141km
Updated: 23/11/2020 19:20
Rain, Partly cloudy
Rain, Partly cloudy
 Wind from SSW
Wind: SSW 9 mph , 15 km/h
Temperature: 8°C
Wind Chill: 5°C
Dew Point: 7°C
Humidity: 93%
Barometer: 1005 hPa
Summary: Rain
Clouds: Partly cloudy
Visibility: 6 miles , 10 km
Cloud details: Few Clouds 457 m
Partly cloudy 1036 m
2020/11/23 19:20 EGPE 231920Z 21008KT 9999 RA FEW015 SCT034 08/07 Q1005
EGQA - Tain Range (saws, United Kingdom
Distance from station: ENE 97mi, 156km
Updated: 23/11/2020 18:50
Rain, Partly cloudy
Rain, Partly cloudy
 Wind from SSW
Wind: SSW 9 mph , 15 km/h
Summary: Rain
Clouds: Partly cloudy
Visibility: 6 miles , 10 km
Cloud details: Few Clouds 549 m
Partly cloudy 1158 m
2020/11/23 18:50 EGQA 231850Z 21008KT 9999 RA FEW018 SCT038 08/// Q1005 RMK BLU
 
EGQK - Kinloss Raf, United Kingdom
Distance from station: ENE 107mi, 171km
Updated: 23/11/2020 18:50
Light rain, Mostly cloudy
Light rain, Mostly cloudy
 Wind from SW
Wind: SW 8 mph , 13 km/h
Temperature: 9°C
Wind Chill: 7°C
Dew Point: 7°C
Humidity: 87%
Barometer: 1005 hPa
Summary: Light rain
Clouds: Mostly cloudy
Visibility: 6 miles , 10 km
Cloud details: Few Clouds 945 m
Mostly cloudy 1524 m
2020/11/23 18:50 EGQK 231850Z AUTO 22007KT 9999 -RA FEW031/// BKN050/// 09/07 Q1005
EGPI - Islay/Port Ellen, United Kingdom
Distance from station: S 110mi, 177km
Updated: 23/11/2020 18:50
Light rain, Drizzle, Partly cloudy
Light rain, Drizzle, Partly cloudy
 Wind from S
Wind: S 17 mph , 28 km/h
Temperature: 11°C
Dew Point: 10°C
Humidity: 94%
Barometer: 1009 hPa
Summary: Light rain, Drizzle
Clouds: Partly cloudy
Visibility: 6 miles , 10 km
Cloud details: Mostly cloudy 366 m
Partly cloudy 914 m
2020/11/23 18:50 EGPI 231850Z AUTO 19015KT 160V220 9999 -RADZ BKN012/// SCT030/// 11/10 Q1009
 
EGQS - Lossiemouth Raf, United Kingdom
Distance from station: ENE 117mi, 188km
Updated: 23/11/2020 19:19
Light rain, Mostly cloudy
Light rain, Mostly cloudy
 Wind from S
Wind: S 7 mph , 11 km/h
Temperature: 8°C
Wind Chill: 6°C
Dew Point: 7°C
Humidity: 93%
Barometer: 1005 hPa
Summary: Light rain
Clouds: Mostly cloudy
Visibility: 6 miles , 10 km
Cloud details: Partly cloudy 853 m
Partly cloudy 1280 m
Mostly cloudy 1829 m
2020/11/23 19:19 EGQS 231919Z 19006KT 9999 -RA SCT028 SCT042 BKN060 08/07 Q1005 NOSIG RMK BLU BLU
EGPF - Glasgow Airport, United Kingdom
Distance from station: SE 121mi, 195km
Updated: 23/11/2020 19:20
Light rain, Mostly cloudy
Light rain, Mostly cloudy
 Wind from SSW
Wind: SSW 26 mph , 43 km/h, Gust: 39 mph , 63 km/h
Temperature: 11°C
Dew Point: 10°C
Humidity: 94%
Barometer: 1008 hPa
Summary: Light rain
Clouds: Mostly cloudy
Visibility: 4 miles , 6 km
Cloud details: Mostly cloudy 396 m
2020/11/23 19:20 EGPF 231920Z AUTO 21023G34KT 6000 -RA BKN013 11/10 Q1008 RERA REDZ
 
EGEC - Campbeltown, United Kingdom
Distance from station: SSE 129mi, 207km
Updated: 23/11/2020 17:50
NOT Current
Partly cloudy
Partly cloudy
 Wind from S
Wind: S 21 mph , 33 km/h, Gust: 33 mph , 54 km/h
Temperature: 11°C
Dew Point: 10°C
Humidity: 94%
Barometer: 1009 hPa
Clouds: Partly cloudy
Visibility: 6 miles , 10 km
Cloud details: Mostly cloudy 823 m
Partly cloudy 1280 m
2020/11/23 17:50 EGEC 231750Z 19018G29KT 160V220 9999 BKN027 SCT042 11/10 Q1009
EGPN - Dundee/Riverside, United Kingdom
Distance from station: ESE 137mi, 221km
Updated: 23/11/2020 19:20
Light rain, Partly cloudy
Light rain, Partly cloudy
 Wind from WSW
Wind: WSW 14 mph , 22 km/h
Temperature: 10°C
Wind Chill: 7°C
Dew Point: 9°C
Humidity: 94%
Barometer: 1008 hPa
Summary: Light rain
Clouds: Partly cloudy
Visibility: 6 miles , 10 km
Cloud details: Few Clouds 762 m
Partly cloudy 914 m
2020/11/23 19:20 EGPN 231920Z 25012KT 9999 -RA FEW025 SCT030 10/09 Q1008 RERA
 
EGPK - Prestwick(Civ/Na, United Kingdom
Distance from station: SSE 139mi, 224km
Updated: 23/11/2020 19:20
Light rain, Mostly cloudy
Light rain, Mostly cloudy
 Wind from SSW
Wind: SSW 22 mph , 35 km/h, Gust: 35 mph , 56 km/h
Temperature: 12°C
Dew Point: 10°C
Humidity: 88%
Barometer: 1010 hPa
Summary: Light rain
Clouds: Mostly cloudy
Visibility: 6 miles , 9 km
Cloud details: Few Clouds 366 m
Partly cloudy 732 m
Mostly cloudy 914 m
2020/11/23 19:20 EGPK 231920Z 21019G30KT 9000 -RA FEW012 SCT024 BKN030 12/10 Q1010
EGQL - Leuchars Raf, United Kingdom
Distance from station: ESE 145mi, 233km
Updated: 23/11/2020 18:50
Light rain, Showers, Mostly cloudy
Light rain, Showers, Mostly cloudy
 Wind from SW
Wind: SW 13 mph , 20 km/h
Temperature: 10°C
Wind Chill: 7°C
Dew Point: 9°C
Humidity: 94%
Barometer: 1008 hPa
Summary: Light rain, Showers
Clouds: Mostly cloudy
Visibility: 6 miles , 10 km
Cloud details: Partly cloudy 549 m
Mostly cloudy 1036 m
2020/11/23 18:50 EGQL 231850Z 23011KT 9999 -SHRA SCT018 BKN034 10/09 Q1008 WHT
 
EGPH - Edinburgh Airpor, United Kingdom
Distance from station: SE 145mi, 234km
Updated: 23/11/2020 19:20
Light rain, Overcast
Light rain, Overcast
 Wind from SW
Wind: SW 15 mph , 24 km/h
Temperature: 11°C
Dew Point: 10°C
Humidity: 94%
Barometer: 1008 hPa
Summary: Light rain
Clouds: Overcast
Visibility: 5 miles , 8 km
Cloud details: Mostly cloudy 366 m
Overcast 640 m
2020/11/23 19:20 EGPH 231920Z 23013KT 8000 -RA BKN012 OVC021 11/10 Q1008
EGPC - Wick, United Kingdom
Distance from station: NE 146mi, 234km
Updated: 23/11/2020 19:20
Light rain, Mostly cloudy
Light rain, Mostly cloudy
 Wind from SSW
Wind: SSW 12 mph , 19 km/h
Temperature: 8°C
Wind Chill: 4°C
Dew Point: 6°C
Humidity: 87%
Barometer: 1004 hPa
Summary: Light rain
Clouds: Mostly cloudy
Visibility: 6 miles , 10 km
Cloud details: Partly cloudy 823 m
Mostly cloudy 1097 m
2020/11/23 19:20 EGPC 231920Z AUTO 21010KT 170V230 9999 -RA SCT027/// BKN036/// 08/06 Q1004

-

free counters
QR Code Twitter Scottish Weather Network UK Weather Network
Argyll House B & B

Argyll House B & B is situated in North West Skye and is the perfect base to see all that the Isle of Skye has to offer. Bookings are been taken for 2021